Time;durP1;ratioP1;P1;durP2;ratioP2;P2;SDS_P1;SDS_P2;PMS_P1;PMS_P2;Temp;Humidity;BMP_temperature;BMP_pressure;BME280_temperature;BME280_humidity;BME280_pressure;Samples;Min_cycle;Max_cycle;Signal;HPM_P1;HPM_P2
2024/01/11 20:32:00;;;;;;;82.88;41.97;;;0.90;99.90;;;;;;5154138;27;20393;-35
2024/01/11 20:34:26;;;;;;;71.03;35.13;;;0.90;99.90;;;;;;5139283;27;20043;-33
2024/01/11 20:36:51;;;;;;;84.50;45.08;;;0.90;99.90;;;;;;5143389;27;20471;-32
2024/01/11 20:39:17;;;;;;;74.85;37.60;;;0.80;99.90;;;;;;5129027;27;20028;-33
2024/01/11 20:41:44;;;;;;;71.90;37.35;;;0.80;99.90;;;;;;5141184;27;20035;-33
2024/01/11 20:44:10;;;;;;;78.75;40.50;;;0.80;99.90;;;;;;5132285;27;20031;-33
2024/01/11 20:46:36;;;;;;;71.15;38.17;;;0.80;99.90;;;;;;5138908;27;20046;-33
2024/01/11 20:49:03;;;;;;;66.90;36.55;;;0.80;99.90;;;;;;5147647;27;20039;-34
2024/01/11 20:51:29;;;;;;;61.78;33.78;;;0.80;99.90;;;;;;5142839;27;20034;-33
2024/01/11 20:53:59;;;;;;;69.75;34.47;;;0.70;99.90;;;;;;5135103;27;20468;-33
2024/01/11 20:56:26;;;;;;;69.30;34.22;;;0.80;99.90;;;;;;5147080;27;20034;-33
2024/01/11 20:58:51;;;;;;;58.22;31.08;;;0.80;99.90;;;;;;5126422;27;20413;-33
2024/01/11 21:01:17;;;;;;;64.78;33.00;;;0.80;99.90;;;;;;5144263;27;20038;-34
2024/01/11 21:03:43;;;;;;;66.05;32.60;;;0.70;99.90;;;;;;5142935;27;20032;-34
2024/01/11 21:06:09;;;;;;;71.95;34.15;;;0.80;99.90;;;;;;5120909;27;20533;-33
2024/01/11 21:08:35;;;;;;;62.78;32.28;;;0.80;99.90;;;;;;5143089;27;20035;-33
2024/01/11 21:11:00;;;;;;;71.60;35.20;;;0.80;99.90;;;;;;5143296;27;20229;-34
2024/01/11 21:13:27;;;;;;;65.32;32.58;;;0.80;99.90;;;;;;5141301;27;20033;-34
2024/01/11 21:15:53;;;;;;;68.65;32.88;;;0.80;99.90;;;;;;5109645;27;20046;-33
2024/01/11 21:18:19;;;;;;;66.57;32.78;;;0.80;99.90;;;;;;5149807;27;20054;-33
2024/01/11 21:20:45;;;;;;;64.35;31.90;;;0.80;99.90;;;;;;5142833;27;20075;-33
2024/01/11 21:23:12;;;;;;;65.20;32.67;;;0.80;99.90;;;;;;5125671;27;20103;-34
2024/01/11 21:25:38;;;;;;;61.47;31.65;;;0.80;99.90;;;;;;5137179;27;20479;-33
2024/01/11 21:28:04;;;;;;;64.95;32.80;;;0.80;99.90;;;;;;5145642;27;20084;-34
2024/01/11 21:30:30;;;;;;;61.72;30.75;;;0.80;99.90;;;;;;5147514;27;20100;-33
2024/01/11 21:32:57;;;;;;;58.55;28.73;;;0.80;99.90;;;;;;5136175;27;20047;-35
2024/01/11 21:35:24;;;;;;;60.20;28.98;;;0.80;99.90;;;;;;5116211;28;20036;-33
2024/01/11 21:37:50;;;;;;;59.47;31.17;;;0.80;99.90;;;;;;5128992;27;20032;-35
2024/01/11 21:40:18;;;;;;;55.50;28.10;;;0.80;99.90;;;;;;5132834;27;20043;-33
2024/01/11 21:42:46;;;;;;;57.80;28.30;;;0.80;99.90;;;;;;5122627;27;20110;-32
2024/01/11 21:45:12;;;;;;;56.65;28.25;;;0.80;99.90;;;;;;5128206;27;20070;-34
2024/01/11 21:47:37;;;;;;;55.05;28.48;;;0.80;99.90;;;;;;5123229;27;20491;-34
2024/01/11 21:50:03;;;;;;;57.60;29.85;;;0.80;99.90;;;;;;5125525;27;20035;-33
2024/01/11 21:52:29;;;;;;;53.53;27.88;;;0.80;99.90;;;;;;5131376;27;20046;-33
2024/01/11 21:54:55;;;;;;;59.25;28.77;;;0.80;99.90;;;;;;5128534;27;20517;-34
2024/01/11 21:57:21;;;;;;;57.95;29.50;;;0.80;99.90;;;;;;5130757;27;20039;-33
2024/01/11 21:59:47;;;;;;;52.90;27.17;;;0.80;99.90;;;;;;5115882;27;20414;-32
2024/01/11 22:02:13;;;;;;;60.90;30.38;;;0.80;99.90;;;;;;5127880;27;20110;-33
2024/01/11 22:04:39;;;;;;;60.92;29.77;;;0.80;99.90;;;;;;5129492;27;20161;-32
2024/01/11 22:07:05;;;;;;;60.95;29.33;;;0.80;99.90;;;;;;5119934;27;20627;-34
2024/01/11 22:09:31;;;;;;;61.15;32.13;;;0.80;99.90;;;;;;5103641;28;20118;-33
2024/01/11 22:11:57;;;;;;;63.30;30.02;;;0.80;99.90;;;;;;5116204;27;20506;-39
2024/01/11 22:14:23;;;;;;;59.80;29.75;;;0.80;99.90;;;;;;5118594;27;20402;-35
2024/01/11 22:16:49;;;;;;;55.75;27.65;;;0.80;99.90;;;;;;5122395;27;20052;-36
2024/01/11 22:19:15;;;;;;;61.13;29.67;;;0.80;99.90;;;;;;5133245;27;20036;-35
2024/01/11 22:21:41;;;;;;;56.28;28.85;;;0.70;99.90;;;;;;5124691;27;20566;-34
2024/01/11 22:24:08;;;;;;;57.40;29.20;;;0.80;99.90;;;;;;5116799;27;20032;-34
2024/01/11 22:26:34;;;;;;;54.78;29.90;;;0.80;99.90;;;;;;5124141;27;20123;-34
2024/01/11 22:28:59;;;;;;;69.85;34.92;;;0.80;99.90;;;;;;5080285;27;20114;-35
2024/01/11 22:31:35;;;;;;;61.55;32.20;;;0.80;99.90;;;;;;5130557;27;20065;-34
2024/01/11 22:34:02;;;;;;;63.70;31.35;;;0.80;99.90;;;;;;5116285;27;20451;-37
2024/01/11 22:36:28;;;;;;;70.28;34.28;;;0.70;99.90;;;;;;5133306;27;20031;-39
2024/01/11 22:38:55;;;;;;;76.30;38.08;;;0.70;99.90;;;;;;5101946;27;20039;-34
2024/01/11 22:41:22;;;;;;;69.28;35.70;;;0.70;99.90;;;;;;5115201;27;20043;-34
2024/01/11 22:43:48;;;;;;;75.85;38.95;;;0.70;99.90;;;;;;5123873;27;20096;-35
2024/01/11 22:46:13;;;;;;;90.07;43.85;;;0.70;99.90;;;;;;5123663;27;20032;-34
2024/01/11 22:48:41;;;;;;;82.70;40.50;;;0.70;99.90;;;;;;5131582;27;20117;-35
2024/01/11 22:51:07;;;;;;;69.03;34.40;;;0.70;99.90;;;;;;5124045;27;20078;-36
2024/01/11 22:53:33;;;;;;;79.55;38.13;;;0.70;99.90;;;;;;5108570;27;20054;-37
2024/01/11 22:55:59;;;;;;;76.15;38.78;;;0.70;99.90;;;;;;5131378;27;20043;-36
2024/01/11 22:58:25;;;;;;;72.00;37.03;;;0.70;99.90;;;;;;5128583;27;20031;-35
2024/01/11 23:00:50;;;;;;;74.55;36.78;;;0.70;99.90;;;;;;5132753;27;20043;-34
2024/01/11 23:03:16;;;;;;;76.75;37.22;;;0.70;99.90;;;;;;5128471;27;20051;-34
2024/01/11 23:05:42;;;;;;;77.50;40.63;;;0.70;99.90;;;;;;5124194;27;20096;-34
2024/01/11 23:08:08;;;;;;;73.43;36.83;;;0.70;99.90;;;;;;5130852;27;20486;-35
2024/01/11 23:10:35;;;;;;;69.45;36.25;;;0.60;99.90;;;;;;5119706;27;20130;-35
2024/01/11 23:13:01;;;;;;;66.82;33.92;;;0.70;99.90;;;;;;5131156;27;20042;-35
2024/01/11 23:15:27;;;;;;;81.88;39.55;;;0.70;99.90;;;;;;5128089;27;20501;-35
2024/01/11 23:17:52;;;;;;;91.70;42.65;;;0.70;99.90;;;;;;5132734;27;20497;-37
2024/01/11 23:20:19;;;;;;;84.88;40.78;;;0.70;99.90;;;;;;5127722;27;20079;-34
2024/01/11 23:22:45;;;;;;;90.32;44.53;;;0.70;99.90;;;;;;5102074;27;20035;-35
2024/01/11 23:25:10;;;;;;;96.20;44.55;;;0.70;99.90;;;;;;5133255;27;20047;-35
2024/01/11 23:27:36;;;;;;;90.45;42.45;;;0.70;99.90;;;;;;5125743;27;20078;-34
2024/01/11 23:30:02;;;;;;;86.65;42.83;;;0.60;99.90;;;;;;5121440;27;20082;-35
2024/01/11 23:32:28;;;;;;;123.80;53.92;;;0.60;99.90;;;;;;5124735;27;20218;-35
2024/01/11 23:34:54;;;;;;;113.65;48.17;;;0.70;99.90;;;;;;5127934;27;20409;-35
2024/01/11 23:37:20;;;;;;;91.05;42.85;;;0.60;99.90;;;;;;5130680;27;20042;-35
2024/01/11 23:39:46;;;;;;;68.53;34.80;;;0.60;99.90;;;;;;5127980;27;20082;-35
2024/01/11 23:42:12;;;;;;;60.28;32.72;;;0.60;99.90;;;;;;5116761;27;20039;-34
2024/01/11 23:44:39;;;;;;;71.15;33.80;;;0.70;99.90;;;;;;5119884;27;20503;-35
2024/01/11 23:47:05;;;;;;;63.30;32.13;;;0.70;99.90;;;;;;5131718;27;20039;-35
2024/01/11 23:49:31;;;;;;;59.80;31.05;;;0.60;99.90;;;;;;5124744;27;20057;-36
2024/01/11 23:51:56;;;;;;;54.25;29.77;;;0.60;99.90;;;;;;5131786;27;20039;-37
2024/01/11 23:54:22;;;;;;;60.90;30.08;;;0.60;99.90;;;;;;5121505;27;20039;-34
2024/01/11 23:56:48;;;;;;;59.90;29.13;;;0.60;99.90;;;;;;5128082;27;20040;-34
2024/01/11 23:59:18;;;;;;;51.22;29.02;;;0.60;99.90;;;;;;5128842;27;20039;-37
